createdAt,value
2023-05-03T00:01:13.412Z,98127.36
2023-05-03T00:03:43.129Z,98130.15
2023-05-03T00:06:15.498Z,98127.36
2023-05-03T00:08:45.475Z,98125.59
2023-05-03T00:11:15.684Z,98126.62
2023-05-03T00:13:46.031Z,98118.74
2023-05-03T00:16:15.999Z,98121.70
2023-05-03T00:18:47.740Z,98121.90
2023-05-03T00:21:18.839Z,98116.38
2023-05-03T00:23:48.643Z,98117.76
2023-05-03T00:26:19.585Z,98120.33
2023-05-03T00:28:51.253Z,98119.29
2023-05-03T00:31:24.395Z,98118.73
2023-05-03T00:33:54.255Z,98120.30
2023-05-03T00:36:24.836Z,98120.64
2023-05-03T00:38:55.235Z,98117.88
2023-05-03T00:41:25.736Z,98118.39
2023-05-03T00:43:55.774Z,98115.64
2023-05-03T00:46:26.188Z,98118.09
2023-05-03T00:48:56.287Z,98120.35
2023-05-03T00:51:28.103Z,98121.40
2023-05-03T00:53:58.642Z,98119.16
2023-05-03T00:56:31.098Z,98120.04
2023-05-03T00:59:03.828Z,98122.64
2023-05-03T01:01:34.270Z,98122.29
2023-05-03T01:04:07.253Z,98119.55
2023-05-03T01:06:44.870Z,98120.06
2023-05-03T01:09:22.428Z,98122.48
2023-05-03T01:12:01.286Z,98121.25
2023-05-03T01:14:37.244Z,98124.89
2023-05-03T01:17:12.387Z,98124.02
2023-05-03T01:19:46.462Z,98123.84
2023-05-03T01:22:27.124Z,98127.14
2023-05-03T01:25:07.401Z,98128.00
2023-05-03T01:27:37.834Z,98130.62
2023-05-03T01:30:12.011Z,98129.95
2023-05-03T01:32:51.081Z,98127.69
2023-05-03T01:35:29.416Z,98126.63
2023-05-03T01:38:00.439Z,98129.77
2023-05-03T01:40:32.852Z,98128.71
2023-05-03T01:43:04.784Z,98130.42
2023-05-03T01:45:35.379Z,98129.75
2023-05-03T01:48:12.271Z,98127.55
2023-05-03T01:50:42.338Z,98130.21
2023-05-03T01:53:15.501Z,98129.40
2023-05-03T01:55:46.127Z,98130.66
2023-05-03T01:58:16.333Z,98128.42
2023-05-03T02:00:48.340Z,98131.87
2023-05-03T02:03:18.952Z,98133.58
2023-05-03T02:05:49.658Z,98133.59
2023-05-03T02:08:22.540Z,98136.20
2023-05-03T02:10:53.077Z,98133.09
2023-05-03T02:13:23.240Z,98133.05
2023-05-03T02:15:54.786Z,98134.58
2023-05-03T02:18:27.229Z,98137.48
2023-05-03T02:20:57.436Z,98135.59
2023-05-03T02:23:27.751Z,98134.91
2023-05-03T02:25:58.140Z,98130.11
2023-05-03T02:28:29.070Z,98133.20
2023-05-03T02:30:59.387Z,98130.07
2023-05-03T02:33:29.439Z,98129.58
2023-05-03T02:36:02.622Z,98131.77
2023-05-03T02:38:33.086Z,98133.69
2023-05-03T02:41:03.291Z,98133.50
2023-05-03T02:43:33.601Z,98130.56
2023-05-03T02:46:03.673Z,98135.58
2023-05-03T02:48:33.967Z,98133.17
2023-05-03T02:51:03.895Z,98136.27
2023-05-03T02:53:33.845Z,98135.24
2023-05-03T02:56:04.533Z,98139.73
2023-05-03T02:58:34.823Z,98139.52
2023-05-03T03:01:05.535Z,98143.14
2023-05-03T03:03:35.485Z,98144.36
2023-05-03T03:06:05.939Z,98145.92
2023-05-03T03:08:37.637Z,98143.89
2023-05-03T03:11:08.594Z,98147.73
2023-05-03T03:13:40.893Z,98147.89
2023-05-03T03:16:13.974Z,98150.38
2023-05-03T03:18:43.954Z,98149.80
2023-05-03T03:21:13.914Z,98151.25
2023-05-03T03:23:44.622Z,98151.62
2023-05-03T03:26:14.682Z,98151.77
2023-05-03T03:28:45.583Z,98149.04
2023-05-03T03:31:17.888Z,98152.35
2023-05-03T03:33:48.376Z,98151.68
2023-05-03T03:36:18.753Z,98153.12
2023-05-03T03:38:49.219Z,98155.89
2023-05-03T03:41:19.908Z,98157.30
2023-05-03T03:43:50.400Z,98157.63
2023-05-03T03:46:21.550Z,98158.65
2023-05-03T03:48:52.427Z,98166.78
2023-05-03T03:51:23.604Z,98164.58
2023-05-03T03:53:54.602Z,98167.56
2023-05-03T03:56:26.141Z,98170.05
2023-05-03T03:58:56.677Z,98172.84
2023-05-03T04:01:27.917Z,98173.49
2023-05-03T04:03:58.994Z,98176.27
2023-05-03T04:06:29.270Z,98181.14
2023-05-03T04:08:59.506Z,98183.73
2023-05-03T04:11:29.646Z,98181.15
2023-05-03T04:14:02.690Z,98181.98
2023-05-03T04:16:33.350Z,98182.99
2023-05-03T04:19:04.999Z,98185.45
2023-05-03T04:21:36.757Z,98184.81
2023-05-03T04:24:09.626Z,98185.02
2023-05-03T04:26:42.637Z,98191.10
2023-05-03T04:29:19.757Z,98190.98
2023-05-03T04:31:49.898Z,98196.05
2023-05-03T04:34:20.618Z,98198.98
2023-05-03T04:36:51.842Z,98199.66
2023-05-03T04:39:22.626Z,98200.71
2023-05-03T04:41:52.928Z,98201.39
2023-05-03T04:44:26.297Z,98201.27
2023-05-03T04:46:57.626Z,98205.45
2023-05-03T04:49:28.885Z,98205.47
2023-05-03T04:51:59.916Z,98210.16
2023-05-03T04:54:31.108Z,98214.50
2023-05-03T04:57:01.410Z,98214.17
2023-05-03T04:59:31.874Z,98216.64
2023-05-03T05:02:02.018Z,98223.42
2023-05-03T05:04:32.374Z,98225.30
2023-05-03T05:07:04.423Z,98224.63
2023-05-03T05:09:34.820Z,98226.55
2023-05-03T05:12:05.631Z,98226.59
2023-05-03T05:14:39.453Z,98229.49
2023-05-03T05:17:13.823Z,98230.73
2023-05-03T05:19:44.554Z,98230.67
2023-05-03T05:22:14.937Z,98231.70
2023-05-03T05:24:49.542Z,98231.33
2023-05-03T05:27:20.091Z,98231.27
2023-05-03T05:29:53.134Z,98233.30
2023-05-03T05:32:23.344Z,98236.91
2023-05-03T05:34:55.066Z,98237.05
2023-05-03T05:37:27.350Z,98237.23
2023-05-03T05:39:59.025Z,98243.42
2023-05-03T05:42:30.323Z,98242.90
2023-05-03T05:45:00.541Z,98245.13
2023-05-03T05:47:30.841Z,98247.88
2023-05-03T05:50:01.724Z,98248.02
2023-05-03T05:52:33.894Z,98250.13
2023-05-03T05:55:04.793Z,98253.54
2023-05-03T05:57:35.233Z,98254.58
2023-05-03T06:00:14.282Z,98256.66
2023-05-03T06:02:44.434Z,98256.73
2023-05-03T06:05:19.128Z,98258.76
2023-05-03T06:07:50.389Z,98260.23
2023-05-03T06:10:21.550Z,98259.45
2023-05-03T06:12:53.607Z,98265.82
2023-05-03T06:15:27.020Z,98267.83
2023-05-03T06:17:57.101Z,98270.21
2023-05-03T06:20:27.376Z,98272.63
2023-05-03T06:22:57.818Z,98275.84
2023-05-03T06:25:27.916Z,98274.77
2023-05-03T06:27:57.921Z,98279.20
2023-05-03T06:30:32.310Z,98281.52
2023-05-03T06:33:08.653Z,98284.24
2023-05-03T06:35:39.737Z,98284.54
2023-05-03T06:38:11.677Z,98283.80
2023-05-03T06:40:42.056Z,98283.92
2023-05-03T06:43:15.020Z,98284.27
2023-05-03T06:45:54.418Z,98288.54
2023-05-03T06:48:24.819Z,98286.74
2023-05-03T06:50:55.020Z,98288.05
2023-05-03T06:53:25.148Z,98291.02
2023-05-03T06:55:55.751Z,98293.79
2023-05-03T06:58:25.729Z,98298.06
2023-05-03T07:00:56.844Z,98297.87
2023-05-03T07:03:27.012Z,98300.45
2023-05-03T07:05:57.212Z,98296.40
2023-05-03T07:08:27.731Z,98299.09
2023-05-03T07:10:58.067Z,98300.42
2023-05-03T07:13:28.109Z,98302.27
2023-05-03T07:16:02.055Z,98303.05
2023-05-03T07:18:33.865Z,98300.75
2023-05-03T07:21:06.667Z,98300.87
2023-05-03T07:23:37.886Z,98296.89
2023-05-03T07:26:08.435Z,98298.39
2023-05-03T07:28:38.318Z,98302.96
2023-05-03T07:31:08.884Z,98303.91
2023-05-03T07:33:40.150Z,98308.55
2023-05-03T07:36:11.292Z,98310.04
2023-05-03T07:38:41.166Z,98312.23
2023-05-03T07:41:16.306Z,98312.17
2023-05-03T07:43:46.511Z,98314.93
2023-05-03T07:46:16.657Z,98319.17
2023-05-03T07:48:47.274Z,98319.69
2023-05-03T07:51:17.586Z,98319.23
2023-05-03T07:53:47.546Z,98319.84
2023-05-03T07:56:17.634Z,98322.35
2023-05-03T07:58:50.998Z,98322.38
2023-05-03T08:01:32.614Z,98321.14
2023-05-03T08:04:02.949Z,98322.15
2023-05-03T08:06:35.180Z,98323.72
2023-05-03T08:09:05.931Z,98321.59
2023-05-03T08:11:36.576Z,98326.32
2023-05-03T08:14:06.444Z,98329.49
2023-05-03T08:16:36.664Z,98331.02
2023-05-03T08:19:07.687Z,98336.99
2023-05-03T08:21:38.182Z,98339.34
2023-05-03T08:24:16.104Z,98343.81
2023-05-03T08:26:47.977Z,98338.59
2023-05-03T08:29:18.073Z,98337.98
2023-05-03T08:31:48.196Z,98339.44
2023-05-03T08:34:18.752Z,98339.63
2023-05-03T08:36:53.302Z,98339.80
2023-05-03T08:39:26.432Z,98342.00
2023-05-03T08:41:56.833Z,98344.05
2023-05-03T08:44:31.384Z,98346.64
2023-05-03T08:47:04.108Z,98348.52
2023-05-03T08:49:34.945Z,98351.79
2023-05-03T08:52:07.383Z,98350.45
2023-05-03T08:54:37.394Z,98351.48
2023-05-03T08:57:16.040Z,98352.94
2023-05-03T08:59:50.688Z,98357.02
2023-05-03T09:02:22.207Z,98359.77
2023-05-03T09:04:59.430Z,98357.73
2023-05-03T09:07:31.025Z,98361.59
2023-05-03T09:10:01.957Z,98355.73
2023-05-03T09:12:40.999Z,98359.04
2023-05-03T09:15:23.071Z,98359.86
2023-05-03T09:18:09.836Z,98363.00
2023-05-03T09:20:42.213Z,98364.36
2023-05-03T09:23:13.201Z,98367.91
2023-05-03T09:25:48.054Z,98367.59
2023-05-03T09:28:19.860Z,98367.16
2023-05-03T09:30:50.948Z,98367.73
2023-05-03T09:33:30.659Z,98369.74
2023-05-03T09:36:02.224Z,98367.08
2023-05-03T09:38:34.541Z,98370.33
2023-05-03T09:41:06.291Z,98375.97
2023-05-03T09:43:37.121Z,98373.91
2023-05-03T09:46:12.191Z,98374.47
2023-05-03T09:48:42.463Z,98373.91
2023-05-03T09:51:13.299Z,98376.01
2023-05-03T09:53:45.400Z,98375.02
2023-05-03T09:56:15.948Z,98374.63
2023-05-03T09:58:46.726Z,98376.49
2023-05-03T10:01:17.591Z,98374.84
2023-05-03T10:03:50.204Z,98373.45
2023-05-03T10:06:26.915Z,98375.00
2023-05-03T10:09:05.461Z,98375.15
2023-05-03T10:11:36.950Z,98373.13
2023-05-03T10:14:07.929Z,98376.52
2023-05-03T10:16:41.414Z,98373.30
2023-05-03T10:19:14.990Z,98374.09
2023-05-03T10:22:02.938Z,98375.64
2023-05-03T10:24:33.880Z,98374.79
2023-05-03T10:27:07.466Z,98374.98
2023-05-03T10:30:04.019Z,98377.95
2023-05-03T10:32:40.475Z,98376.27
2023-05-03T10:35:14.085Z,98380.47
2023-05-03T10:37:43.549Z,98377.22
2023-05-03T10:40:16.518Z,98383.51
2023-05-03T10:42:50.438Z,98377.68
2023-05-03T10:45:26.027Z,98377.66
2023-05-03T10:48:22.623Z,98381.02
2023-05-03T10:50:52.886Z,98381.23
2023-05-03T10:53:40.902Z,98377.52
2023-05-03T10:56:12.302Z,98377.86
2023-05-03T10:58:45.280Z,98379.41
2023-05-03T11:01:17.345Z,98377.67
2023-05-03T11:03:52.298Z,98381.75
2023-05-03T11:06:33.413Z,98380.20
2023-05-03T11:09:05.832Z,98382.60
2023-05-03T11:11:38.814Z,98382.42
2023-05-03T11:14:09.579Z,98380.52
2023-05-03T11:16:46.960Z,98381.00
2023-05-03T11:19:17.553Z,98383.64
2023-05-03T11:21:48.486Z,98379.45
2023-05-03T11:24:18.723Z,98377.91
2023-05-03T11:26:49.198Z,98381.04
2023-05-03T11:29:20.804Z,98383.10
2023-05-03T11:31:52.132Z,98382.30
2023-05-03T11:34:22.250Z,98382.93
2023-05-03T11:36:52.264Z,98383.55
2023-05-03T11:39:22.513Z,98385.20
2023-05-03T11:42:06.054Z,98382.40
2023-05-03T11:44:37.332Z,98386.70
2023-05-03T11:47:09.213Z,98387.67
2023-05-03T11:49:39.333Z,98386.59
2023-05-03T11:52:09.671Z,98390.94
2023-05-03T11:54:40.723Z,98390.55
2023-05-03T11:57:15.783Z,98390.13
2023-05-03T11:59:45.849Z,98388.45
2023-05-03T12:02:16.730Z,98388.58
2023-05-03T12:04:47.566Z,98390.73
2023-05-03T12:07:21.635Z,98388.48
2023-05-03T12:10:09.455Z,98389.31
2023-05-03T12:12:54.243Z,98383.59
2023-05-03T12:15:36.862Z,98382.77
2023-05-03T12:18:09.608Z,98381.83
2023-05-03T12:23:16.288Z,98386.06
2023-05-03T12:25:49.304Z,98388.00
2023-05-03T12:28:21.408Z,98390.08
2023-05-03T12:30:53.279Z,98392.50
2023-05-03T12:33:23.997Z,98392.39
2023-05-03T12:35:54.684Z,98387.38
2023-05-03T12:38:25.603Z,98382.00
2023-05-03T12:40:55.873Z,98380.60
2023-05-03T12:43:26.466Z,98385.65
2023-05-03T12:48:37.464Z,98380.15
2023-05-03T12:51:19.503Z,98377.50
2023-05-03T12:53:55.544Z,98374.66
2023-05-03T12:56:26.275Z,98373.98
2023-05-03T13:04:36.420Z,98373.52
2023-05-03T13:06:58.725Z,98373.06
2023-05-03T13:09:38.804Z,98374.61
2023-05-03T13:12:21.555Z,98373.06
2023-05-03T13:14:56.075Z,98366.19
2023-05-03T13:17:26.333Z,98364.55
2023-05-03T13:19:58.271Z,98361.64
2023-05-03T13:22:28.463Z,98363.14
2023-05-03T13:24:59.055Z,98362.52
2023-05-03T13:27:29.133Z,98365.45
2023-05-03T13:30:01.613Z,98365.48
2023-05-03T13:32:33.012Z,98364.44
2023-05-03T13:35:05.055Z,98362.05
2023-05-03T13:37:35.156Z,98361.91
2023-05-03T13:40:07.384Z,98359.44
2023-05-03T13:42:37.613Z,98357.89
2023-05-03T13:45:09.999Z,98358.16
2023-05-03T13:48:05.167Z,98356.30
2023-05-03T13:50:31.850Z,98351.56
2023-05-03T13:53:02.778Z,98354.42
2023-05-03T13:55:32.977Z,98348.97
2023-05-03T13:58:03.591Z,98352.29
2023-05-03T14:00:33.854Z,98349.05
2023-05-03T14:03:06.291Z,98349.45
2023-05-03T14:05:37.075Z,98352.55
2023-05-03T14:08:07.280Z,98350.89
2023-05-03T14:10:37.509Z,98353.58
2023-05-03T14:13:07.931Z,98352.84
2023-05-03T14:15:42.170Z,98352.10
2023-05-03T14:18:15.246Z,98351.36
2023-05-03T14:20:45.213Z,98348.00
2023-05-03T14:23:15.142Z,98346.86
2023-05-03T14:25:45.094Z,98348.19
2023-05-03T14:28:15.290Z,98346.86
2023-05-03T14:30:45.444Z,98353.98
2023-05-03T14:33:15.830Z,98352.57
2023-05-03T14:35:45.822Z,98351.96
2023-05-03T14:38:15.811Z,98353.86
2023-05-03T14:40:46.025Z,98354.76
2023-05-03T14:43:16.083Z,98359.15
2023-05-03T14:45:46.668Z,98357.67
2023-05-03T14:48:17.213Z,98362.35
2023-05-03T14:50:50.361Z,98362.02
2023-05-03T14:53:21.405Z,98363.56
2023-05-03T14:55:53.016Z,98365.83
2023-05-03T14:58:23.286Z,98365.91
2023-05-03T15:00:56.890Z,98366.38
2023-05-03T15:03:27.569Z,98365.78
2023-05-03T15:05:57.527Z,98368.77
2023-05-03T15:08:29.707Z,98367.33
2023-05-03T15:10:59.757Z,98365.87
2023-05-03T15:13:30.388Z,98368.22
2023-05-03T15:16:00.555Z,98367.27
2023-05-03T15:18:30.674Z,98364.14
2023-05-03T15:21:03.502Z,98366.70
2023-05-03T15:23:34.901Z,98364.85
2023-05-03T15:26:05.231Z,98366.77
2023-05-03T15:28:35.980Z,98362.02
2023-05-03T15:31:07.104Z,98362.23
2023-05-03T15:33:41.775Z,98361.11
2023-05-03T15:36:16.833Z,98362.94
2023-05-03T15:38:48.237Z,98359.98
2023-05-03T15:41:19.169Z,98359.10
2023-05-03T15:43:49.264Z,98362.50
2023-05-03T15:46:19.324Z,98359.71
2023-05-03T15:48:55.610Z,98359.08
2023-05-03T15:51:27.641Z,98357.38
2023-05-03T15:53:59.937Z,98354.73
2023-05-03T15:56:31.144Z,98354.36
2023-05-03T15:59:01.845Z,98357.02
2023-05-03T16:01:32.390Z,98356.41
2023-05-03T16:04:02.362Z,98355.35
2023-05-03T16:06:33.780Z,98353.59
2023-05-03T16:09:04.627Z,98351.86
2023-05-03T16:11:35.464Z,98348.49
2023-05-03T16:14:09.009Z,98345.36
2023-05-03T16:16:51.631Z,98347.03
2023-05-03T16:19:27.128Z,98345.45
2023-05-03T16:21:57.583Z,98347.75
2023-05-03T16:24:28.181Z,98346.52
2023-05-03T16:26:58.480Z,98347.35
2023-05-03T16:29:29.830Z,98346.49
2023-05-03T16:32:00.483Z,98345.42
2023-05-03T16:34:31.138Z,98347.12
2023-05-03T16:37:03.826Z,98349.01
2023-05-03T16:39:33.938Z,98350.45
2023-05-03T16:42:04.105Z,98344.81
2023-05-03T16:44:34.314Z,98349.66
2023-05-03T16:47:06.205Z,98349.73
2023-05-03T16:49:36.177Z,98349.59
2023-05-03T16:52:06.592Z,98352.44
2023-05-03T16:54:37.557Z,98351.14
2023-05-03T16:57:07.637Z,98351.73
2023-05-03T16:59:37.647Z,98355.04
2023-05-03T17:02:08.236Z,98356.56
2023-05-03T17:04:38.274Z,98357.60
2023-05-03T17:07:16.724Z,98355.02
2023-05-03T17:09:48.905Z,98356.91
2023-05-03T17:12:21.747Z,98359.58
2023-05-03T17:14:53.365Z,98359.19
2023-05-03T17:17:37.560Z,98360.45
2023-05-03T17:20:10.470Z,98361.84
2023-05-03T17:22:41.535Z,98358.56
2023-05-03T17:25:13.046Z,98365.28
2023-05-03T17:27:45.052Z,98369.52
2023-05-03T17:30:20.393Z,98372.49
2023-05-03T17:32:51.947Z,98368.23
2023-05-03T17:35:22.482Z,98369.79
2023-05-03T17:37:53.574Z,98370.73
2023-05-03T17:40:24.519Z,98373.55
2023-05-03T17:42:54.963Z,98375.27
2023-05-03T17:45:28.730Z,98374.35
2023-05-03T17:47:59.386Z,98377.32
2023-05-03T17:50:33.884Z,98377.77
2023-05-03T17:53:07.588Z,98374.98
2023-05-03T17:55:40.437Z,98375.75
2023-05-03T17:58:13.234Z,98378.88
2023-05-03T18:00:45.614Z,98380.77
2023-05-03T18:03:16.737Z,98381.48
2023-05-03T18:05:49.060Z,98381.15
2023-05-03T18:08:21.257Z,98383.76
2023-05-03T18:10:51.644Z,98379.77
2023-05-03T18:13:23.841Z,98383.21
2023-05-03T18:15:53.623Z,98381.67
2023-05-03T18:18:25.594Z,98380.20
2023-05-03T18:21:04.311Z,98379.71
2023-05-03T18:23:35.487Z,98382.36
2023-05-03T18:26:07.321Z,98383.52
2023-05-03T18:28:39.622Z,98381.11
2023-05-03T18:31:13.238Z,98384.85
2023-05-03T18:33:50.050Z,98383.95
2023-05-03T18:36:24.194Z,98384.96
2023-05-03T18:38:58.064Z,98387.45
2023-05-03T18:41:28.947Z,98389.94
2023-05-03T18:43:59.679Z,98388.45
2023-05-03T18:46:32.574Z,98388.98
2023-05-03T18:49:04.239Z,98391.17
2023-05-03T18:51:37.943Z,98392.37
2023-05-03T18:54:08.105Z,98394.46
2023-05-03T18:56:45.054Z,98397.58
2023-05-03T18:59:15.453Z,98398.90
2023-05-03T19:01:46.591Z,98398.41
2023-05-03T19:04:17.134Z,98399.22
2023-05-03T19:06:47.559Z,98397.23
2023-05-03T19:09:18.480Z,98403.58
2023-05-03T19:11:48.878Z,98400.68
2023-05-03T19:14:19.026Z,98399.77
2023-05-03T19:16:55.582Z,98400.40
2023-05-03T19:19:25.889Z,98403.31
2023-05-03T19:21:59.073Z,98402.67
2023-05-03T19:24:30.058Z,98404.96
2023-05-03T19:27:00.025Z,98404.84
2023-05-03T19:29:30.451Z,98406.30
2023-05-03T19:32:02.302Z,98407.04
2023-05-03T19:34:35.908Z,98405.56
2023-05-03T19:37:06.398Z,98408.71
2023-05-03T19:39:37.381Z,98409.14
2023-05-03T19:42:08.670Z,98407.29
2023-05-03T19:44:38.856Z,98406.42
2023-05-03T19:47:08.920Z,98410.00
2023-05-03T19:49:39.039Z,98408.59
2023-05-03T19:52:08.934Z,98408.06
2023-05-03T19:54:39.047Z,98404.47
2023-05-03T19:57:09.236Z,98405.38
2023-05-03T19:59:39.792Z,98402.67
2023-05-03T20:02:25.243Z,98406.13
2023-05-03T20:04:56.040Z,98404.08
2023-05-03T20:07:26.408Z,98402.23
2023-05-03T20:09:56.519Z,98397.37
2023-05-03T20:12:28.782Z,98392.75
2023-05-03T20:14:59.379Z,98395.73
2023-05-03T20:17:29.310Z,98393.50
2023-05-03T20:20:06.258Z,98394.05
2023-05-03T20:22:36.752Z,98396.88
2023-05-03T20:25:09.338Z,98393.70
2023-05-03T20:27:39.622Z,98396.54
2023-05-03T20:30:11.497Z,98398.04
2023-05-03T20:32:45.088Z,98396.01
2023-05-03T20:35:16.021Z,98395.00
2023-05-03T20:37:46.307Z,98396.33
2023-05-03T20:40:16.720Z,98399.94
2023-05-03T20:42:46.626Z,98399.11
2023-05-03T20:45:16.839Z,98403.27
2023-05-03T20:47:46.805Z,98401.55
2023-05-03T20:50:16.889Z,98401.54
2023-05-03T20:52:47.456Z,98402.66
2023-05-03T20:55:17.797Z,98402.62
2023-05-03T20:57:47.752Z,98396.24
2023-05-03T21:00:18.455Z,98394.34
2023-05-03T21:02:52.831Z,98396.33
2023-05-03T21:05:23.265Z,98399.15
2023-05-03T21:07:53.178Z,98394.88
2023-05-03T21:10:23.491Z,98395.28
2023-05-03T21:12:53.542Z,98394.15
2023-05-03T21:15:23.451Z,98394.88
2023-05-03T21:17:53.595Z,98395.75
2023-05-03T21:20:23.804Z,98396.29
2023-05-03T21:22:54.014Z,98393.92
2023-05-03T21:25:24.617Z,98391.55
2023-05-03T21:27:54.544Z,98390.70
2023-05-03T21:30:25.301Z,98389.67
2023-05-03T21:32:55.222Z,98390.70
2023-05-03T21:35:26.217Z,98386.08
2023-05-03T21:37:56.145Z,98389.41
2023-05-03T21:40:26.575Z,98392.38
2023-05-03T21:42:56.566Z,98387.29
2023-05-03T21:45:26.573Z,98387.15
2023-05-03T21:47:56.684Z,98386.35
2023-05-03T21:50:26.919Z,98389.49
2023-05-03T21:52:56.865Z,98388.30
2023-05-03T21:55:27.053Z,98388.83
2023-05-03T21:57:57.011Z,98390.20
2023-05-03T22:00:26.995Z,98389.54
2023-05-03T22:02:57.111Z,98391.13
2023-05-03T22:05:27.153Z,98388.92
2023-05-03T22:07:57.127Z,98392.21
2023-05-03T22:10:27.079Z,98388.98
2023-05-03T22:12:57.380Z,98388.31
2023-05-03T22:15:27.518Z,98389.86
2023-05-03T22:17:58.368Z,98389.69
2023-05-03T22:20:29.660Z,98392.60
2023-05-03T22:22:59.771Z,98391.90
2023-05-03T22:25:32.349Z,98389.85
2023-05-03T22:28:02.307Z,98390.39
2023-05-03T22:30:32.865Z,98388.86
2023-05-03T22:33:02.577Z,98388.70
2023-05-03T22:35:32.485Z,98386.45
2023-05-03T22:38:03.262Z,98383.89
2023-05-03T22:40:33.489Z,98384.77
2023-05-03T22:43:03.612Z,98380.17
2023-05-03T22:45:34.127Z,98380.21
2023-05-03T22:48:04.212Z,98378.00
2023-05-03T22:50:34.634Z,98379.73
2023-05-03T22:53:04.541Z,98379.40
2023-05-03T22:55:35.072Z,98381.98
2023-05-03T22:58:04.984Z,98381.80
2023-05-03T23:00:35.063Z,98381.98
2023-05-03T23:03:04.962Z,98381.30
2023-05-03T23:05:35.862Z,98384.38
2023-05-03T23:08:06.504Z,98382.31
2023-05-03T23:10:36.367Z,98382.31
2023-05-03T23:13:06.748Z,98383.70
2023-05-03T23:15:37.381Z,98379.07
2023-05-03T23:18:07.991Z,98380.09
2023-05-03T23:20:38.152Z,98379.59
2023-05-03T23:23:07.887Z,98377.35
2023-05-03T23:25:37.975Z,98379.05
2023-05-03T23:28:08.116Z,98376.30
2023-05-03T23:30:42.076Z,98370.30
2023-05-03T23:33:13.012Z,98367.71
2023-05-03T23:35:43.365Z,98368.41
2023-05-03T23:38:14.143Z,98366.02
2023-05-03T23:40:44.165Z,98364.98
2023-05-03T23:43:14.519Z,98361.58
2023-05-03T23:45:44.539Z,98362.94
2023-05-03T23:48:14.699Z,98360.20
2023-05-03T23:50:44.517Z,98359.84
2023-05-03T23:53:14.700Z,98356.58
2023-05-03T23:55:44.456Z,98355.55
2023-05-03T23:58:14.343Z,98354.52
